sensor_id;sensor_type;location;lat;lon;timestamp;pressure;altitude;pressure_sealevel;temperature;humidity
62548;BME280;48602;45.192;5.722;2023-04-01T00:02:06;98913.28;;;11.14;73.33
62548;BME280;48602;45.192;5.722;2023-04-01T00:04:32;98918.41;;;11.17;73.50
62548;BME280;48602;45.192;5.722;2023-04-01T00:06:58;98926.19;;;11.20;74.21
62548;BME280;48602;45.192;5.722;2023-04-01T00:09:24;98929.69;;;11.21;74.73
62548;BME280;48602;45.192;5.722;2023-04-01T00:11:50;98932.53;;;11.16;74.46
62548;BME280;48602;45.192;5.722;2023-04-01T00:14:15;98931.66;;;11.15;74.12
62548;BME280;48602;45.192;5.722;2023-04-01T00:16:40;98925.47;;;11.16;74.64
62548;BME280;48602;45.192;5.722;2023-04-01T00:19:06;98929.69;;;11.21;74.87
62548;BME280;48602;45.192;5.722;2023-04-01T00:21:31;98936.75;;;11.20;75.08
62548;BME280;48602;45.192;5.722;2023-04-01T00:23:57;98936.94;;;11.15;75.19
62548;BME280;48602;45.192;5.722;2023-04-01T00:26:23;98937.28;;;11.08;75.34
62548;BME280;48602;45.192;5.722;2023-04-01T00:28:50;98940.22;;;11.02;75.65
62548;BME280;48602;45.192;5.722;2023-04-01T00:31:15;98940.47;;;10.96;76.22
62548;BME280;48602;45.192;5.722;2023-04-01T00:33:41;98933.78;;;10.89;76.06
62548;BME280;48602;45.192;5.722;2023-04-01T00:36:07;98937.59;;;10.81;75.35
62548;BME280;48602;45.192;5.722;2023-04-01T00:38:34;98936.94;;;10.76;76.06
62548;BME280;48602;45.192;5.722;2023-04-01T00:40:59;98935.28;;;10.74;76.56
62548;BME280;48602;45.192;5.722;2023-04-01T00:43:25;98940.78;;;10.69;76.28
62548;BME280;48602;45.192;5.722;2023-04-01T00:45:51;98951.56;;;10.63;76.52
62548;BME280;48602;45.192;5.722;2023-04-01T00:48:22;98938.53;;;10.60;77.01
62548;BME280;48602;45.192;5.722;2023-04-01T00:53:38;98926.56;;;10.53;77.32
62548;BME280;48602;45.192;5.722;2023-04-01T00:56:12;98939.84;;;10.50;77.78
62548;BME280;48602;45.192;5.722;2023-04-01T00:58:42;98936.47;;;10.46;77.76
62548;BME280;48602;45.192;5.722;2023-04-01T01:01:09;98929.63;;;10.42;77.85
62548;BME280;48602;45.192;5.722;2023-04-01T01:03:35;98921.78;;;10.41;77.87
62548;BME280;48602;45.192;5.722;2023-04-01T01:06:11;98921.72;;;10.42;78.10
62548;BME280;48602;45.192;5.722;2023-04-01T01:09:10;98927.72;;;10.46;78.07
62548;BME280;48602;45.192;5.722;2023-04-01T01:14:27;98929.31;;;10.50;77.32
62548;BME280;48602;45.192;5.722;2023-04-01T01:17:14;98917.78;;;10.53;77.29
62548;BME280;48602;45.192;5.722;2023-04-01T01:28:34;98915.78;;;10.58;77.68
62548;BME280;48602;45.192;5.722;2023-04-01T01:36:21;98911.44;;;10.57;78.47
62548;BME280;48602;45.192;5.722;2023-04-01T01:38:48;98919.34;;;10.57;77.94
62548;BME280;48602;45.192;5.722;2023-04-01T01:41:17;98919.28;;;10.58;78.23
62548;BME280;48602;45.192;5.722;2023-04-01T01:43:46;98906.97;;;10.59;78.39
62548;BME280;48602;45.192;5.722;2023-04-01T01:46:17;98912.16;;;10.60;78.01
62548;BME280;48602;45.192;5.722;2023-04-01T01:48:45;98906.97;;;10.59;78.27
62548;BME280;48602;45.192;5.722;2023-04-01T01:51:12;98906.09;;;10.58;78.18
62548;BME280;48602;45.192;5.722;2023-04-01T01:53:38;98902.66;;;10.56;78.21
62548;BME280;48602;45.192;5.722;2023-04-01T01:56:04;98908.09;;;10.53;77.71
62548;BME280;48602;45.192;5.722;2023-04-01T01:58:30;98913.38;;;10.53;77.74
62548;BME280;48602;45.192;5.722;2023-04-01T02:00:59;98913.38;;;10.53;78.05
62548;BME280;48602;45.192;5.722;2023-04-01T02:03:30;98910.72;;;10.53;77.63
62548;BME280;48602;45.192;5.722;2023-04-01T02:05:59;98903.75;;;10.52;77.92
62548;BME280;48602;45.192;5.722;2023-04-01T02:11:07;98903.00;;;10.48;78.26
62548;BME280;48602;45.192;5.722;2023-04-01T02:13:44;98902.09;;;10.49;78.61
62548;BME280;48602;45.192;5.722;2023-04-01T02:16:29;98907.19;;;10.54;79.06
62548;BME280;48602;45.192;5.722;2023-04-01T02:18:57;98910.50;;;10.58;78.40
62548;BME280;48602;45.192;5.722;2023-04-01T02:21:28;98906.97;;;10.59;78.22
62548;BME280;48602;45.192;5.722;2023-04-01T02:23:56;98910.50;;;10.58;77.88
62548;BME280;48602;45.192;5.722;2023-04-01T02:26:24;98914.00;;;10.58;78.20
62548;BME280;48602;45.192;5.722;2023-04-01T02:28:52;98913.03;;;10.61;78.32
62548;BME280;48602;45.192;5.722;2023-04-01T02:31:19;98912.03;;;10.63;78.18
62548;BME280;48602;45.192;5.722;2023-04-01T02:33:46;98910.19;;;10.65;78.13
62548;BME280;48602;45.192;5.722;2023-04-01T02:36:14;98895.16;;;10.67;78.00
62548;BME280;48602;45.192;5.722;2023-04-01T02:38:41;98889.81;;;10.69;77.81
62548;BME280;48602;45.192;5.722;2023-04-01T02:41:06;98886.09;;;10.73;78.03
62548;BME280;48602;45.192;5.722;2023-04-01T02:43:32;98888.63;;;10.76;78.10
62548;BME280;48602;45.192;5.722;2023-04-01T02:45:58;98893.75;;;10.79;77.72
62548;BME280;48602;45.192;5.722;2023-04-01T02:48:23;98893.69;;;10.80;77.29
62548;BME280;48602;45.192;5.722;2023-04-01T02:50:49;98896.31;;;10.80;77.21
62548;BME280;48602;45.192;5.722;2023-04-01T02:53:15;98893.75;;;10.79;77.21
62548;BME280;48602;45.192;5.722;2023-04-01T02:55:41;98894.69;;;10.78;77.37
62548;BME280;48602;45.192;5.722;2023-04-01T02:58:06;98892.03;;;10.78;77.45
62548;BME280;48602;45.192;5.722;2023-04-01T03:00:32;98893.81;;;10.77;77.32
62548;BME280;48602;45.192;5.722;2023-04-01T03:02:57;98895.53;;;10.78;77.76
62548;BME280;48602;45.192;5.722;2023-04-01T03:05:23;98892.91;;;10.78;77.82
62548;BME280;48602;45.192;5.722;2023-04-01T03:07:48;98892.91;;;10.78;77.71
62548;BME280;48602;45.192;5.722;2023-04-01T03:10:14;98895.53;;;10.78;77.69
62548;BME280;48602;45.192;5.722;2023-04-01T03:12:41;98899.09;;;10.77;78.07
62548;BME280;48602;45.192;5.722;2023-04-01T03:15:06;98895.59;;;10.77;78.33
62548;BME280;48602;45.192;5.722;2023-04-01T03:17:32;98892.03;;;10.78;78.42
62548;BME280;48602;45.192;5.722;2023-04-01T03:19:57;98888.56;;;10.77;78.59
62548;BME280;48602;45.192;5.722;2023-04-01T03:22:23;98886.91;;;10.75;78.55
62548;BME280;48602;45.192;5.722;2023-04-01T03:24:48;98885.19;;;10.74;78.67
62548;BME280;48602;45.192;5.722;2023-04-01T03:27:14;98874.81;;;10.71;78.97
62548;BME280;48602;45.192;5.722;2023-04-01T03:29:39;98867.09;;;10.66;79.37
62548;BME280;48602;45.192;5.722;2023-04-01T03:32:05;98872.38;;;10.66;78.92
62548;BME280;48602;45.192;5.722;2023-04-01T03:34:31;98863.72;;;10.63;79.36
62548;BME280;48602;45.192;5.722;2023-04-01T03:36:56;98864.72;;;10.60;79.55
62548;BME280;48602;45.192;5.722;2023-04-01T03:39:22;98873.53;;;10.59;79.39
62548;BME280;48602;45.192;5.722;2023-04-01T03:41:48;98872.75;;;10.57;79.18
62548;BME280;48602;45.192;5.722;2023-04-01T03:44:13;98870.97;;;10.58;79.38
62548;BME280;48602;45.192;5.722;2023-04-01T03:46:38;98860.50;;;10.56;79.40
62548;BME280;48602;45.192;5.722;2023-04-01T03:49:09;98862.31;;;10.56;79.31
62548;BME280;48602;45.192;5.722;2023-04-01T03:51:38;98857.03;;;10.56;79.36
62548;BME280;48602;45.192;5.722;2023-04-01T03:54:04;98849.13;;;10.56;79.03
62548;BME280;48602;45.192;5.722;2023-04-01T03:56:30;98847.25;;;10.58;78.78
62548;BME280;48602;45.192;5.722;2023-04-01T03:58:55;98844.53;;;10.59;78.89
62548;BME280;48602;45.192;5.722;2023-04-01T04:01:21;98849.75;;;10.61;78.94
62548;BME280;48602;45.192;5.722;2023-04-01T04:03:48;98854.03;;;10.63;78.99
62548;BME280;48602;45.192;5.722;2023-04-01T04:06:15;98854.03;;;10.63;78.36
62548;BME280;48602;45.192;5.722;2023-04-01T04:08:41;98842.63;;;10.63;78.28
62548;BME280;48602;45.192;5.722;2023-04-01T04:11:06;98851.53;;;10.60;78.24
62548;BME280;48602;45.192;5.722;2023-04-01T04:13:32;98848.78;;;10.63;79.07
62548;BME280;48602;45.192;5.722;2023-04-01T04:15:58;98847.97;;;10.61;78.55
62548;BME280;48602;45.192;5.722;2023-04-01T04:18:23;98861.22;;;10.60;78.18
62548;BME280;48602;45.192;5.722;2023-04-01T04:20:49;98857.03;;;10.56;77.94
62548;BME280;48602;45.192;5.722;2023-04-01T04:23:17;98859.00;;;10.51;78.35
62548;BME280;48602;45.192;5.722;2023-04-01T04:26:02;98863.63;;;10.45;78.97
62548;BME280;48602;45.192;5.722;2023-04-01T04:28:28;98869.13;;;10.39;78.75
62548;BME280;48602;45.192;5.722;2023-04-01T04:30:54;98870.28;;;10.34;78.04
62548;BME280;48602;45.192;5.722;2023-04-01T04:33:22;98878.56;;;10.25;78.98
62548;BME280;48602;45.192;5.722;2023-04-01T04:35:48;98864.00;;;10.16;79.43
62548;BME280;48602;45.192;5.722;2023-04-01T04:38:13;98863.25;;;10.12;79.65
62548;BME280;48602;45.192;5.722;2023-04-01T04:40:40;98856.22;;;10.13;79.89
62548;BME280;48602;45.192;5.722;2023-04-01T04:43:07;98850.03;;;10.14;79.94
62548;BME280;48602;45.192;5.722;2023-04-01T04:45:32;98857.00;;;10.15;80.12
62548;BME280;48602;45.192;5.722;2023-04-01T04:47:58;98867.53;;;10.15;79.86
62548;BME280;48602;45.192;5.722;2023-04-01T04:50:24;98867.38;;;10.20;80.08
62548;BME280;48602;45.192;5.722;2023-04-01T04:52:50;98875.94;;;10.25;79.96
62548;BME280;48602;45.192;5.722;2023-04-01T04:55:15;98885.53;;;10.26;80.30
62548;BME280;48602;45.192;5.722;2023-04-01T04:57:41;98883.03;;;10.23;80.45
62548;BME280;48602;45.192;5.722;2023-04-01T05:00:07;98874.53;;;10.16;80.35
62548;BME280;48602;45.192;5.722;2023-04-01T05:02:33;98879.06;;;10.12;80.61
62548;BME280;48602;45.192;5.722;2023-04-01T05:04:58;98861.59;;;10.10;80.49
62548;BME280;48602;45.192;5.722;2023-04-01T05:07:24;98862.28;;;10.15;80.36
62548;BME280;48602;45.192;5.722;2023-04-01T05:09:49;98861.25;;;10.19;80.84
62548;BME280;48602;45.192;5.722;2023-04-01T05:12:15;98859.19;;;10.26;80.76
62548;BME280;48602;45.192;5.722;2023-04-01T05:14:40;98860.72;;;10.31;80.55
62548;BME280;48602;45.192;5.722;2023-04-01T05:17:10;98850.84;;;10.36;81.10
62548;BME280;48602;45.192;5.722;2023-04-01T05:19:36;98853.25;;;10.41;81.04
62548;BME280;48602;45.192;5.722;2023-04-01T05:22:01;98852.09;;;10.48;81.00
62548;BME280;48602;45.192;5.722;2023-04-01T05:24:27;98850.19;;;10.52;80.53
62548;BME280;48602;45.192;5.722;2023-04-01T05:26:52;98848.28;;;10.55;80.89
62548;BME280;48602;45.192;5.722;2023-04-01T05:29:17;98850.75;;;10.58;80.97
62548;BME280;48602;45.192;5.722;2023-04-01T05:31:43;98861.16;;;10.61;80.67
62548;BME280;48602;45.192;5.722;2023-04-01T05:34:08;98873.41;;;10.62;80.20
62548;BME280;48602;45.192;5.722;2023-04-01T05:36:34;98875.25;;;10.60;79.81
62548;BME280;48602;45.192;5.722;2023-04-01T05:39:00;98872.84;;;10.56;79.74
62548;BME280;48602;45.192;5.722;2023-04-01T05:41:26;98870.53;;;10.48;79.70
62548;BME280;48602;45.192;5.722;2023-04-01T05:43:51;98881.41;;;10.40;80.32
62548;BME280;48602;45.192;5.722;2023-04-01T05:46:16;98878.31;;;10.31;80.45
62548;BME280;48602;45.192;5.722;2023-04-01T05:48:42;98883.78;;;10.26;80.42
62548;BME280;48602;45.192;5.722;2023-04-01T05:51:15;98904.97;;;10.23;81.22
62548;BME280;48602;45.192;5.722;2023-04-01T05:53:41;98909.69;;;10.15;82.02
62548;BME280;48602;45.192;5.722;2023-04-01T05:56:07;98903.75;;;10.10;82.76
62548;BME280;48602;45.192;5.722;2023-04-01T05:58:35;98903.00;;;10.06;82.74
62548;BME280;48602;45.192;5.722;2023-04-01T06:01:11;98900.53;;;10.03;82.39
62548;BME280;48602;45.192;5.722;2023-04-01T06:03:36;98912.78;;;10.04;82.28
62548;BME280;48602;45.192;5.722;2023-04-01T06:06:02;98915.41;;;10.04;82.58
62548;BME280;48602;45.192;5.722;2023-04-01T06:08:30;98911.06;;;10.03;82.39
62548;BME280;48602;45.192;5.722;2023-04-01T06:14:16;98916.91;;;10.10;82.32
62548;BME280;48602;45.192;5.722;2023-04-01T06:30:47;98940.16;;;10.42;82.04
62548;BME280;48602;45.192;5.722;2023-04-01T06:33:49;98941.50;;;10.53;81.53
62548;BME280;48602;45.192;5.722;2023-04-01T06:42:23;98921.53;;;10.88;82.09
62548;BME280;48602;45.192;5.722;2023-04-01T06:56:11;98928.06;;;11.37;79.14
62548;BME280;48602;45.192;5.722;2023-04-01T07:01:58;98945.38;;;11.61;78.07
62548;BME280;48602;45.192;5.722;2023-04-01T07:04:29;98947.44;;;11.73;77.88
62548;BME280;48602;45.192;5.722;2023-04-01T07:06:59;98945.19;;;11.84;76.46
62548;BME280;48602;45.192;5.722;2023-04-01T07:09:31;98951.19;;;11.88;75.97
62548;BME280;48602;45.192;5.722;2023-04-01T07:12:02;98952.19;;;11.85;75.44
62548;BME280;48602;45.192;5.722;2023-04-01T07:14:35;98958.25;;;11.87;75.42
62548;BME280;48602;45.192;5.722;2023-04-01T07:17:23;98959.66;;;11.95;75.23
62548;BME280;48602;45.192;5.722;2023-04-01T07:22:42;98949.91;;;12.14;75.36
62548;BME280;48602;45.192;5.722;2023-04-01T07:25:35;98947.56;;;12.25;74.99
62548;BME280;48602;45.192;5.722;2023-04-01T07:28:05;98941.84;;;12.34;74.35
62548;BME280;48602;45.192;5.722;2023-04-01T07:31:00;98947.44;;;12.45;74.20
62548;BME280;48602;45.192;5.722;2023-04-01T07:33:39;98948.78;;;12.54;73.91
62548;BME280;48602;45.192;5.722;2023-04-01T07:36:45;98943.78;;;12.65;73.86
62548;BME280;48602;45.192;5.722;2023-04-01T07:42:15;98946.25;;;12.85;72.92
62548;BME280;48602;45.192;5.722;2023-04-01T07:51:02;98939.75;;;13.08;72.41
62548;BME280;48602;45.192;5.722;2023-04-01T08:08:06;98943.50;;;13.21;71.63
62548;BME280;48602;45.192;5.722;2023-04-01T08:13:38;98951.88;;;13.12;71.78
62548;BME280;48602;45.192;5.722;2023-04-01T08:16:14;98958.13;;;13.11;71.63
62548;BME280;48602;45.192;5.722;2023-04-01T08:21:24;98982.78;;;13.12;72.03
62548;BME280;48602;45.192;5.722;2023-04-01T08:23:56;98988.31;;;13.07;70.22
62548;BME280;48602;45.192;5.722;2023-04-01T08:26:39;98989.38;;;12.87;70.75
62548;BME280;48602;45.192;5.722;2023-04-01T08:29:17;98992.47;;;12.78;71.84
62548;BME280;48602;45.192;5.722;2023-04-01T08:31:46;98987.53;;;12.72;71.89
62548;BME280;48602;45.192;5.722;2023-04-01T08:34:36;98988.66;;;12.67;71.58
62548;BME280;48602;45.192;5.722;2023-04-01T08:37:10;98981.13;;;12.59;71.83
62548;BME280;48602;45.192;5.722;2023-04-01T08:39:42;98978.31;;;12.62;72.01
62548;BME280;48602;45.192;5.722;2023-04-01T08:42:30;98980.97;;;12.62;71.85
62548;BME280;48602;45.192;5.722;2023-04-01T09:15:16;98958.25;;;14.06;69.81
62548;BME280;48602;45.192;5.722;2023-04-01T09:20:17;98953.09;;;14.18;68.58
62548;BME280;48602;45.192;5.722;2023-04-01T09:25:50;98947.16;;;14.29;66.69
62548;BME280;48602;45.192;5.722;2023-04-01T09:28:34;98942.03;;;14.42;66.60
62548;BME280;48602;45.192;5.722;2023-04-01T09:31:18;98932.03;;;14.61;65.63
62548;BME280;48602;45.192;5.722;2023-04-01T09:37:16;98922.03;;;14.94;64.21
62548;BME280;48602;45.192;5.722;2023-04-01T09:45:47;98919.59;;;15.20;61.86
62548;BME280;48602;45.192;5.722;2023-04-01T09:54:08;98914.44;;;15.45;59.47
62548;BME280;48602;45.192;5.722;2023-04-01T10:05:54;98912.34;;;15.64;59.64
62548;BME280;48602;45.192;5.722;2023-04-01T10:57:34;98855.41;;;15.68;59.38
62548;BME280;48602;45.192;5.722;2023-04-01T11:00:37;98853.09;;;15.77;58.00
62548;BME280;48602;45.192;5.722;2023-04-01T11:15:05;98840.50;;;15.66;56.42
62548;BME280;48602;45.192;5.722;2023-04-01T11:17:51;98842.13;;;15.68;56.29
62548;BME280;48602;45.192;5.722;2023-04-01T11:20:39;98842.22;;;15.67;55.90
62548;BME280;48602;45.192;5.722;2023-04-01T11:26:08;98847.69;;;15.37;56.49
62548;BME280;48602;45.192;5.722;2023-04-01T11:44:30;98840.97;;;14.60;59.15
62548;BME280;48602;45.192;5.722;2023-04-01T12:09:00;98785.19;;;14.90;56.55
62548;BME280;48602;45.192;5.722;2023-04-01T12:14:47;98782.25;;;15.22;55.58
62548;BME280;48602;45.192;5.722;2023-04-01T12:20:26;98763.13;;;15.58;54.42
62548;BME280;48602;45.192;5.722;2023-04-01T12:31:30;98731.41;;;16.32;53.76
62548;BME280;48602;45.192;5.722;2023-04-01T12:34:03;98731.63;;;16.42;53.48
62548;BME280;48602;45.192;5.722;2023-04-01T12:56:02;98686.75;;;16.61;52.47
62548;BME280;48602;45.192;5.722;2023-04-01T13:07:50;98674.94;;;16.78;51.66
62548;BME280;48602;45.192;5.722;2023-04-01T13:10:52;98667.06;;;16.77;52.30
62548;BME280;48602;45.192;5.722;2023-04-01T13:13:34;98657.91;;;16.81;51.92
62548;BME280;48602;45.192;5.722;2023-04-01T13:16:22;98647.66;;;16.87;52.26
62548;BME280;48602;45.192;5.722;2023-04-01T13:29:36;98615.09;;;17.07;51.06
62548;BME280;48602;45.192;5.722;2023-04-01T13:32:16;98606.00;;;17.10;51.21
62548;BME280;48602;45.192;5.722;2023-04-01T13:40:31;98586.69;;;16.95;50.87
62548;BME280;48602;45.192;5.722;2023-04-01T13:43:23;98588.75;;;16.92;50.21
62548;BME280;48602;45.192;5.722;2023-04-01T13:57:29;98576.84;;;16.24;49.24
62548;BME280;48602;45.192;5.722;2023-04-01T14:06:09;98588.91;;;15.66;47.22
62548;BME280;48602;45.192;5.722;2023-04-01T14:09:07;98582.16;;;15.48;48.24
62548;BME280;48602;45.192;5.722;2023-04-01T14:12:28;98585.00;;;15.32;48.88
62548;BME280;48602;45.192;5.722;2023-04-01T14:17:31;98581.59;;;15.18;50.41
62548;BME280;48602;45.192;5.722;2023-04-01T14:22:46;98583.75;;;14.86;51.76
62548;BME280;48602;45.192;5.722;2023-04-01T14:30:41;98589.00;;;14.46;52.13
62548;BME280;48602;45.192;5.722;2023-04-01T14:35:41;98595.97;;;14.06;54.65
62548;BME280;48602;45.192;5.722;2023-04-01T14:38:52;98602.59;;;13.85;55.84
62548;BME280;48602;45.192;5.722;2023-04-01T14:50:03;98636.66;;;12.87;58.74
62548;BME280;48602;45.192;5.722;2023-04-01T14:52:38;98628.28;;;12.63;60.35
62548;BME280;48602;45.192;5.722;2023-04-01T14:55:29;98633.91;;;12.41;60.86
62548;BME280;48602;45.192;5.722;2023-04-01T14:58:17;98648.16;;;12.23;62.24
62548;BME280;48602;45.192;5.722;2023-04-01T15:01:13;98637.66;;;12.06;64.84
62548;BME280;48602;45.192;5.722;2023-04-01T15:07:00;98653.25;;;11.77;62.95
62548;BME280;48602;45.192;5.722;2023-04-01T15:10:04;98650.44;;;11.63;62.59
62548;BME280;48602;45.192;5.722;2023-04-01T15:15:29;98655.59;;;11.49;65.13
62548;BME280;48602;45.192;5.722;2023-04-01T15:23:41;98678.31;;;11.17;65.91
62548;BME280;48602;45.192;5.722;2023-04-01T15:26:21;98657.91;;;11.03;66.40
62548;BME280;48602;45.192;5.722;2023-04-01T15:32:16;98667.09;;;10.95;69.24
62548;BME280;48602;45.192;5.722;2023-04-01T15:43:55;98660.78;;;11.16;72.07
62548;BME280;48602;45.192;5.722;2023-04-01T15:46:17;98662.25;;;11.22;72.02
62548;BME280;48602;45.192;5.722;2023-04-01T15:51:24;98636.19;;;11.33;72.88
62548;BME280;48602;45.192;5.722;2023-04-01T15:56:51;98641.03;;;11.58;73.57
62548;BME280;48602;45.192;5.722;2023-04-01T16:02:39;98642.03;;;12.22;73.69
62548;BME280;48602;45.192;5.722;2023-04-01T16:07:55;98648.59;;;12.47;72.06
62548;BME280;48602;45.192;5.722;2023-04-01T16:15:37;98669.56;;;12.34;69.75
62548;BME280;48602;45.192;5.722;2023-04-01T16:23:29;98691.19;;;11.75;72.35
62548;BME280;48602;45.192;5.722;2023-04-01T16:26:15;98696.19;;;11.64;73.73
62548;BME280;48602;45.192;5.722;2023-04-01T16:29:10;98705.66;;;11.50;72.86
62548;BME280;48602;45.192;5.722;2023-04-01T16:34:19;98721.59;;;11.13;74.17
62548;BME280;48602;45.192;5.722;2023-04-01T16:36:50;98703.81;;;10.99;73.73
62548;BME280;48602;45.192;5.722;2023-04-01T16:47:40;98696.81;;;10.98;69.84
62548;BME280;48602;45.192;5.722;2023-04-01T16:50:20;98697.69;;;10.99;67.04
62548;BME280;48602;45.192;5.722;2023-04-01T16:55:57;98691.56;;;10.98;67.05
62548;BME280;48602;45.192;5.722;2023-04-01T16:58:34;98699.19;;;11.04;67.63
62548;BME280;48602;45.192;5.722;2023-04-01T17:01:12;98690.88;;;11.12;66.88
62548;BME280;48602;45.192;5.722;2023-04-01T17:03:44;98692.50;;;11.14;66.24
62548;BME280;48602;45.192;5.722;2023-04-01T17:06:35;98687.88;;;11.19;64.67
62548;BME280;48602;45.192;5.722;2023-04-01T17:14:29;98681.69;;;11.38;65.37
62548;BME280;48602;45.192;5.722;2023-04-01T17:17:42;98678.25;;;11.36;65.09
62548;BME280;48602;45.192;5.722;2023-04-01T18:06:05;98726.84;;;10.39;69.97
62548;BME280;48602;45.192;5.722;2023-04-01T18:14:00;98739.22;;;10.19;70.30
62548;BME280;48602;45.192;5.722;2023-04-01T18:16:33;98747.28;;;10.14;71.39
62548;BME280;48602;45.192;5.722;2023-04-01T18:21:54;98756.66;;;10.01;72.51
62548;BME280;48602;45.192;5.722;2023-04-01T18:27:15;98762.19;;;9.95;72.84
62548;BME280;48602;45.192;5.722;2023-04-01T18:35:12;98784.28;;;9.91;70.13
62548;BME280;48602;45.192;5.722;2023-04-01T18:37:54;98767.38;;;9.76;71.97
62548;BME280;48602;45.192;5.722;2023-04-01T18:40:36;98774.88;;;9.65;72.49
62548;BME280;48602;45.192;5.722;2023-04-01T18:46:10;98767.94;;;9.42;71.78
62548;BME280;48602;45.192;5.722;2023-04-01T18:49:13;98779.63;;;9.35;72.65
62548;BME280;48602;45.192;5.722;2023-04-01T18:51:51;98773.88;;;9.25;73.80
62548;BME280;48602;45.192;5.722;2023-04-01T18:54:26;98779.25;;;9.22;73.93
62548;BME280;48602;45.192;5.722;2023-04-01T18:57:37;98786.44;;;9.19;78.07
62548;BME280;48602;45.192;5.722;2023-04-01T19:02:30;98774.50;;;9.10;81.04
62548;BME280;48602;45.192;5.722;2023-04-01T19:05:10;98788.44;;;9.12;82.78
62548;BME280;48602;45.192;5.722;2023-04-01T19:07:44;98787.63;;;9.10;81.66
62548;BME280;48602;45.192;5.722;2023-04-01T19:15:30;98805.25;;;8.86;83.81
62548;BME280;48602;45.192;5.722;2023-04-01T19:21:04;98807.44;;;8.73;88.05
62548;BME280;48602;45.192;5.722;2023-04-01T19:26:02;98812.22;;;8.64;86.27
62548;BME280;48602;45.192;5.722;2023-04-01T19:28:59;98814.91;;;8.62;87.67
62548;BME280;48602;45.192;5.722;2023-04-01T19:34:51;98816.81;;;8.57;84.41
62548;BME280;48602;45.192;5.722;2023-04-01T19:37:28;98818.66;;;8.55;86.67
62548;BME280;48602;45.192;5.722;2023-04-01T19:40:01;98823.97;;;8.54;86.32
62548;BME280;48602;45.192;5.722;2023-04-01T19:56:18;98825.66;;;8.55;87.04
62548;BME280;48602;45.192;5.722;2023-04-01T20:01:39;98832.59;;;8.57;85.17
62548;BME280;48602;45.192;5.722;2023-04-01T20:04:34;98823.03;;;8.55;84.70
62548;BME280;48602;45.192;5.722;2023-04-01T20:14:53;98817.69;;;8.58;83.70
62548;BME280;48602;45.192;5.722;2023-04-01T20:17:23;98819.50;;;8.56;83.45
62548;BME280;48602;45.192;5.722;2023-04-01T20:25:38;98814.81;;;8.40;83.33
62548;BME280;48602;45.192;5.722;2023-04-01T20:28:04;98809.75;;;8.36;84.11
62548;BME280;48602;45.192;5.722;2023-04-01T20:41:42;98808.94;;;8.34;81.60
62548;BME280;48602;45.192;5.722;2023-04-01T20:49:40;98812.63;;;8.53;81.68
62548;BME280;48602;45.192;5.722;2023-04-01T20:54:43;98806.97;;;8.64;84.34
62548;BME280;48602;45.192;5.722;2023-04-01T20:57:18;98801.47;;;8.70;85.53
62548;BME280;48602;45.192;5.722;2023-04-01T21:10:43;98808.06;;;9.03;86.89
62548;BME280;48602;45.192;5.722;2023-04-01T21:13:58;98801.69;;;9.09;86.72
62548;BME280;48602;45.192;5.722;2023-04-01T21:16:47;98798.97;;;9.12;86.88
62548;BME280;48602;45.192;5.722;2023-04-01T21:27:52;98808.06;;;9.25;86.04
62548;BME280;48602;45.192;5.722;2023-04-01T21:30:47;98813.34;;;9.25;85.38
62548;BME280;48602;45.192;5.722;2023-04-01T21:39:05;98813.91;;;8.88;85.31
62548;BME280;48602;45.192;5.722;2023-04-01T21:52:42;98807.97;;;8.36;89.45
62548;BME280;48602;45.192;5.722;2023-04-01T21:55:41;98806.38;;;8.31;89.52
62548;BME280;48602;45.192;5.722;2023-04-01T22:07:01;98788.56;;;8.16;89.12
62548;BME280;48602;45.192;5.722;2023-04-01T22:09:32;98786.78;;;8.16;89.14
62548;BME280;48602;45.192;5.722;2023-04-01T22:14:41;98786.94;;;8.12;89.04
62548;BME280;48602;45.192;5.722;2023-04-01T22:17:19;98789.69;;;8.09;89.59
62548;BME280;48602;45.192;5.722;2023-04-01T22:25:48;98784.53;;;8.05;89.56
62548;BME280;48602;45.192;5.722;2023-04-01T22:28:27;98789.78;;;8.05;89.29
62548;BME280;48602;45.192;5.722;2023-04-01T22:31:02;98785.44;;;8.04;90.33
62548;BME280;48602;45.192;5.722;2023-04-01T22:36:04;98792.31;;;8.09;90.47
62548;BME280;48602;45.192;5.722;2023-04-01T22:44:45;98797.97;;;8.21;88.70
62548;BME280;48602;45.192;5.722;2023-04-01T22:52:45;98797.19;;;8.44;89.70
62548;BME280;48602;45.192;5.722;2023-04-01T22:55:28;98802.09;;;8.53;89.18
62548;BME280;48602;45.192;5.722;2023-04-01T22:58:15;98791.34;;;8.59;89.28
62548;BME280;48602;45.192;5.722;2023-04-01T23:00:50;98791.13;;;8.65;89.56
62548;BME280;48602;45.192;5.722;2023-04-01T23:03:21;98794.47;;;8.70;89.44
62548;BME280;48602;45.192;5.722;2023-04-01T23:05:56;98791.63;;;8.75;88.76
62548;BME280;48602;45.192;5.722;2023-04-01T23:10:56;98799.28;;;8.81;88.84
62548;BME280;48602;45.192;5.722;2023-04-01T23:13:35;98800.84;;;8.87;88.92
62548;BME280;48602;45.192;5.722;2023-04-01T23:16:04;98804.19;;;8.90;89.16
62548;BME280;48602;45.192;5.722;2023-04-01T23:19:09;98805.72;;;8.96;88.77
62548;BME280;48602;45.192;5.722;2023-04-01T23:21:44;98805.69;;;8.97;88.55
62548;BME280;48602;45.192;5.722;2023-04-01T23:24:16;98807.38;;;8.98;87.92
62548;BME280;48602;45.192;5.722;2023-04-01T23:26:56;98798.59;;;8.99;87.27
62548;BME280;48602;45.192;5.722;2023-04-01T23:29:24;98806.47;;;8.99;87.50
62548;BME280;48602;45.192;5.722;2023-04-01T23:32:01;98804.66;;;9.01;88.21
62548;BME280;48602;45.192;5.722;2023-04-01T23:34:30;98813.34;;;9.03;87.90
62548;BME280;48602;45.192;5.722;2023-04-01T23:37:02;98816.81;;;9.04;88.16
62548;BME280;48602;45.192;5.722;2023-04-01T23:39:36;98815.88;;;9.05;88.27
62548;BME280;48602;45.192;5.722;2023-04-01T23:42:12;98819.25;;;9.08;88.99
62548;BME280;48602;45.192;5.722;2023-04-01T23:44:39;98809.53;;;9.10;88.13
62548;BME280;48602;45.192;5.722;2023-04-01T23:47:06;98810.34;;;9.13;88.37
62548;BME280;48602;45.192;5.722;2023-04-01T23:49:40;98817.31;;;9.14;88.20
62548;BME280;48602;45.192;5.722;2023-04-01T23:52:57;98818.16;;;9.14;88.12
62548;BME280;48602;45.192;5.722;2023-04-01T23:55:18;98808.56;;;9.13;88.40
